createdAt,value
2022-12-25T00:01:16.512Z,7.24
2022-12-25T00:03:43.458Z,7.22
2022-12-25T00:06:10.738Z,7.18
2022-12-25T00:08:38.561Z,7.21
2022-12-25T00:11:12.336Z,7.22
2022-12-25T00:13:39.225Z,7.27
2022-12-25T00:16:10.419Z,7.44
2022-12-25T00:18:37.311Z,7.52
2022-12-25T00:21:06.019Z,7.54
2022-12-25T00:23:34.013Z,7.66
2022-12-25T00:26:03.803Z,7.53
2022-12-25T00:28:30.636Z,7.55
2022-12-25T00:30:57.473Z,7.72
2022-12-25T00:33:26.032Z,7.79
2022-12-25T00:35:59.798Z,7.80
2022-12-25T00:38:27.247Z,7.79
2022-12-25T00:40:54.609Z,7.76
2022-12-25T00:43:21.618Z,7.62
2022-12-25T00:45:55.562Z,7.55
2022-12-25T00:48:22.462Z,7.60
2022-12-25T00:50:52.763Z,7.66
2022-12-25T00:53:19.797Z,7.88
2022-12-25T00:55:50.696Z,7.90
2022-12-25T00:58:17.500Z,7.84
2022-12-25T01:00:44.407Z,7.96
2022-12-25T01:03:11.294Z,7.88
2022-12-25T01:05:38.186Z,7.80
2022-12-25T01:08:05.137Z,7.79
2022-12-25T01:10:31.978Z,7.84
2022-12-25T01:12:58.791Z,7.83
2022-12-25T01:15:25.914Z,7.82
2022-12-25T01:17:52.748Z,7.88
2022-12-25T01:20:19.609Z,7.98
2022-12-25T01:22:46.704Z,8.11
2022-12-25T01:25:13.626Z,7.99
2022-12-25T01:27:41.359Z,7.98
2022-12-25T01:30:08.472Z,7.96
2022-12-25T01:32:35.346Z,7.89
2022-12-25T01:35:02.200Z,7.93
2022-12-25T01:37:28.996Z,7.89
2022-12-25T01:39:55.879Z,7.90
2022-12-25T01:42:23.636Z,7.88
2022-12-25T01:44:50.474Z,7.89
2022-12-25T01:47:18.341Z,7.97
2022-12-25T01:49:47.927Z,7.99
2022-12-25T01:52:23.633Z,7.93
2022-12-25T01:54:59.528Z,7.93
2022-12-25T01:57:29.117Z,7.98
2022-12-25T01:59:57.073Z,8.10
2022-12-25T02:02:24.655Z,8.00
2022-12-25T02:04:58.623Z,8.14
2022-12-25T02:07:26.193Z,8.09
2022-12-25T02:09:53.196Z,8.13
2022-12-25T02:12:21.959Z,8.14
2022-12-25T02:14:50.054Z,8.12
2022-12-25T02:17:23.810Z,8.07
2022-12-25T02:20:09.595Z,8.04
2022-12-25T02:22:36.398Z,8.02
2022-12-25T02:25:22.129Z,8.03
2022-12-25T02:28:04.027Z,8.03
2022-12-25T02:30:33.775Z,8.14
2022-12-25T02:33:21.273Z,8.10
2022-12-25T02:35:51.940Z,8.19
2022-12-25T02:38:24.499Z,8.30
2022-12-25T02:40:54.051Z,8.28
2022-12-25T02:43:41.746Z,8.15
2022-12-25T02:46:28.658Z,8.22
2022-12-25T02:49:23.951Z,8.10
2022-12-25T02:52:30.332Z,8.14
2022-12-25T02:55:19.803Z,8.10
2022-12-25T02:58:07.253Z,8.04
2022-12-25T03:00:55.579Z,7.23
2022-12-25T03:03:42.098Z,8.01
2022-12-25T03:06:27.983Z,8.04
2022-12-25T03:09:16.966Z,8.04
2022-12-25T03:11:45.720Z,8.06
2022-12-25T03:14:31.381Z,8.03
2022-12-25T03:16:58.927Z,8.06
2022-12-25T03:20:06.796Z,8.07
2022-12-25T03:22:52.955Z,8.25
2022-12-25T03:25:38.509Z,8.27
2022-12-25T03:28:05.798Z,8.30
2022-12-25T03:30:59.934Z,8.30
2022-12-25T03:33:45.184Z,8.41
2022-12-25T03:36:28.224Z,8.30
2022-12-25T03:39:20.687Z,8.31
2022-12-25T03:42:09.151Z,8.32
2022-12-25T03:45:08.518Z,8.33
2022-12-25T03:47:57.431Z,8.33
2022-12-25T03:50:51.137Z,8.33
2022-12-25T03:53:45.144Z,8.44
2022-12-25T03:56:30.983Z,8.37
2022-12-25T03:59:23.224Z,8.49
2022-12-25T04:02:10.276Z,8.40
2022-12-25T04:04:56.043Z,8.40
2022-12-25T04:07:41.421Z,8.36
2022-12-25T04:10:27.486Z,8.38
2022-12-25T04:13:13.051Z,8.35
2022-12-25T04:15:58.695Z,8.36
2022-12-25T04:18:44.009Z,8.39
2022-12-25T04:21:29.287Z,8.32
2022-12-25T04:24:14.955Z,8.34
2022-12-25T04:27:00.517Z,8.32
2022-12-25T04:29:46.165Z,8.35
2022-12-25T04:32:31.897Z,8.37
2022-12-25T04:35:17.382Z,8.34
2022-12-25T04:37:44.250Z,7.57
2022-12-25T04:40:11.149Z,8.40
2022-12-25T04:42:38.007Z,8.43
2022-12-25T04:45:04.995Z,8.49
2022-12-25T04:47:32.286Z,8.54
2022-12-25T04:49:59.173Z,8.58
2022-12-25T04:52:26.049Z,8.54
2022-12-25T04:54:52.956Z,8.48
2022-12-25T04:57:19.780Z,8.54
2022-12-25T04:59:46.585Z,8.56
2022-12-25T05:02:13.459Z,8.56
2022-12-25T05:04:40.365Z,8.53
2022-12-25T05:07:07.412Z,8.46
2022-12-25T05:09:34.230Z,8.38
2022-12-25T05:12:01.110Z,8.31
2022-12-25T05:14:28.045Z,8.27
2022-12-25T05:16:54.851Z,8.28
2022-12-25T05:19:21.678Z,8.26
2022-12-25T05:21:48.491Z,8.23
2022-12-25T05:24:15.343Z,8.24
2022-12-25T05:26:42.155Z,8.42
2022-12-25T05:29:08.951Z,8.49
2022-12-25T05:31:35.859Z,8.61
2022-12-25T05:34:03.159Z,8.55
2022-12-25T05:36:30.019Z,8.50
2022-12-25T05:38:56.826Z,8.58
2022-12-25T05:41:24.621Z,8.53
2022-12-25T05:43:52.748Z,8.62
2022-12-25T05:46:19.717Z,8.65
2022-12-25T05:48:46.559Z,8.72
2022-12-25T05:51:14.345Z,8.68
2022-12-25T05:53:42.324Z,8.63
2022-12-25T05:56:09.224Z,8.54
2022-12-25T05:58:37.429Z,8.64
2022-12-25T06:01:04.283Z,8.62
2022-12-25T06:03:31.331Z,8.65
2022-12-25T06:05:58.283Z,8.64
2022-12-25T06:08:25.140Z,8.65
2022-12-25T06:10:51.927Z,8.70
2022-12-25T06:13:18.735Z,8.76
2022-12-25T06:15:47.295Z,8.72
2022-12-25T06:18:16.208Z,8.75
2022-12-25T06:20:43.325Z,8.76
2022-12-25T06:23:10.187Z,8.76
2022-12-25T06:25:40.459Z,8.64
2022-12-25T06:28:07.543Z,8.74
2022-12-25T06:30:34.877Z,8.76
2022-12-25T06:33:01.718Z,8.77
2022-12-25T06:35:28.541Z,8.75
2022-12-25T06:37:56.549Z,8.73
2022-12-25T06:40:23.434Z,8.65
2022-12-25T06:42:51.293Z,8.69
2022-12-25T06:45:18.085Z,8.75
2022-12-25T06:47:44.965Z,8.63
2022-12-25T06:50:11.818Z,8.66
2022-12-25T06:52:38.637Z,8.69
2022-12-25T06:55:06.657Z,8.73
2022-12-25T06:57:33.492Z,8.73
2022-12-25T07:00:00.346Z,8.74
2022-12-25T07:02:27.393Z,8.74
2022-12-25T07:04:54.464Z,8.73
2022-12-25T07:07:22.997Z,8.69
2022-12-25T07:09:49.817Z,8.64
2022-12-25T07:12:18.362Z,8.62
2022-12-25T07:14:48.581Z,8.61
2022-12-25T07:17:19.340Z,8.65
2022-12-25T07:19:46.380Z,8.67
2022-12-25T07:22:13.638Z,8.64
2022-12-25T07:24:40.463Z,8.67
2022-12-25T07:27:08.199Z,8.80
2022-12-25T07:29:35.103Z,8.76
2022-12-25T07:32:02.071Z,8.74
2022-12-25T07:34:28.953Z,8.76
2022-12-25T07:36:55.784Z,8.74
2022-12-25T07:39:23.688Z,8.75
2022-12-25T07:41:51.159Z,8.77
2022-12-25T07:44:18.186Z,8.79
2022-12-25T07:46:45.327Z,8.79
2022-12-25T07:49:12.451Z,8.72
2022-12-25T07:51:39.473Z,8.67
2022-12-25T07:54:06.485Z,8.72
2022-12-25T07:56:33.424Z,8.74
2022-12-25T07:59:00.361Z,8.77
2022-12-25T08:01:27.946Z,8.87
2022-12-25T08:03:56.095Z,8.96
2022-12-25T08:06:24.866Z,8.93
2022-12-25T08:08:51.686Z,8.92
2022-12-25T08:11:18.553Z,8.96
2022-12-25T08:13:45.370Z,8.94
2022-12-25T08:16:12.414Z,9.04
2022-12-25T08:18:39.534Z,9.08
2022-12-25T08:21:10.807Z,9.03
2022-12-25T08:23:38.833Z,8.99
2022-12-25T08:26:06.558Z,9.00
2022-12-25T08:28:34.315Z,9.06
2022-12-25T08:31:20.940Z,9.03
2022-12-25T08:33:48.059Z,8.99
2022-12-25T08:36:15.391Z,9.08
2022-12-25T08:38:42.873Z,9.02
2022-12-25T08:41:10.145Z,9.11
2022-12-25T08:43:37.089Z,9.15
2022-12-25T08:46:04.408Z,9.24
2022-12-25T08:48:31.506Z,9.27
2022-12-25T08:50:58.606Z,9.26
2022-12-25T08:53:25.438Z,9.35
2022-12-25T08:56:03.730Z,9.39
2022-12-25T08:58:30.981Z,9.33
2022-12-25T09:00:58.092Z,9.29
2022-12-25T09:03:25.356Z,9.30
2022-12-25T09:05:52.816Z,9.29
2022-12-25T09:08:20.124Z,9.37
2022-12-25T09:10:47.244Z,9.38
2022-12-25T09:13:14.168Z,9.36
2022-12-25T09:15:41.098Z,9.31
2022-12-25T09:18:07.970Z,9.52
2022-12-25T09:20:34.859Z,9.57
2022-12-25T09:23:01.812Z,9.57
2022-12-25T09:25:28.620Z,9.61
2022-12-25T09:27:55.918Z,9.58
2022-12-25T09:30:23.121Z,9.53
2022-12-25T09:32:50.183Z,9.59
2022-12-25T09:35:18.921Z,9.65
2022-12-25T09:37:45.779Z,9.67
2022-12-25T09:40:18.513Z,9.71
2022-12-25T09:42:45.466Z,9.65
2022-12-25T09:45:15.862Z,9.74
2022-12-25T09:47:45.280Z,9.75
2022-12-25T09:50:14.044Z,9.74
2022-12-25T09:52:44.456Z,9.67
2022-12-25T09:55:19.832Z,9.73
2022-12-25T09:57:51.550Z,9.63
2022-12-25T10:00:20.454Z,9.76
2022-12-25T10:02:50.306Z,9.71
2022-12-25T10:05:38.608Z,9.72
2022-12-25T10:08:05.407Z,9.65
2022-12-25T10:10:44.408Z,9.77
2022-12-25T10:13:11.185Z,9.87
2022-12-25T10:15:47.139Z,9.90
2022-12-25T10:18:25.435Z,9.98
2022-12-25T10:20:53.833Z,9.92
2022-12-25T10:23:23.811Z,9.92
2022-12-25T10:25:51.623Z,9.91
2022-12-25T10:28:38.788Z,9.95
2022-12-25T10:31:15.812Z,9.92
2022-12-25T10:33:42.673Z,9.32
2022-12-25T10:36:09.721Z,9.89
2022-12-25T10:38:36.664Z,9.90
2022-12-25T10:41:11.344Z,9.89
2022-12-25T10:43:42.225Z,9.80
2022-12-25T10:46:10.454Z,9.76
2022-12-25T10:48:41.012Z,9.80
2022-12-25T10:51:07.944Z,9.79
2022-12-25T10:53:38.383Z,9.72
2022-12-25T10:56:06.074Z,9.67
2022-12-25T10:58:33.627Z,9.65
2022-12-25T11:01:03.244Z,9.60
2022-12-25T11:03:32.070Z,9.64
2022-12-25T11:05:59.409Z,9.59
2022-12-25T11:08:27.945Z,9.56
2022-12-25T11:10:59.340Z,9.61
2022-12-25T11:13:27.825Z,9.59
2022-12-25T11:16:03.589Z,9.68
2022-12-25T11:18:35.411Z,9.74
2022-12-25T11:21:24.547Z,9.75
2022-12-25T11:24:00.336Z,9.74
2022-12-25T11:26:28.371Z,9.83
2022-12-25T11:28:56.004Z,9.75
2022-12-25T11:31:29.783Z,9.74
2022-12-25T11:33:56.744Z,9.76
2022-12-25T11:36:31.199Z,9.76
2022-12-25T11:39:21.034Z,9.74
2022-12-25T11:41:48.330Z,9.76
2022-12-25T11:44:26.580Z,9.74
2022-12-25T11:46:55.968Z,9.79
2022-12-25T11:49:23.438Z,9.89
2022-12-25T11:51:53.599Z,9.87
2022-12-25T11:54:25.275Z,9.88
2022-12-25T11:56:52.558Z,10.06
2022-12-25T11:59:19.428Z,10.03
2022-12-25T12:01:48.687Z,10.14
2022-12-25T12:04:31.807Z,10.23
2022-12-25T12:07:06.440Z,10.26
2022-12-25T12:09:48.345Z,10.29
2022-12-25T12:12:23.410Z,10.47
2022-12-25T12:15:11.284Z,10.54
2022-12-25T12:17:38.147Z,10.52
2022-12-25T12:20:34.542Z,10.63
2022-12-25T12:23:03.765Z,10.62
2022-12-25T12:25:31.011Z,10.56
2022-12-25T12:28:04.797Z,10.44
2022-12-25T12:30:35.277Z,10.48
2022-12-25T12:33:04.470Z,10.45
2022-12-25T12:35:33.587Z,10.44
2022-12-25T12:38:02.487Z,10.50
2022-12-25T12:40:32.991Z,10.47
2022-12-25T12:43:00.582Z,10.45
2022-12-25T12:45:30.051Z,10.44
2022-12-25T12:47:57.538Z,10.41
2022-12-25T12:50:27.238Z,10.35
2022-12-25T12:52:54.104Z,10.37
2022-12-25T12:55:30.155Z,10.39
2022-12-25T12:58:04.535Z,10.46
2022-12-25T13:00:47.614Z,9.79
2022-12-25T13:03:28.204Z,10.49
2022-12-25T13:06:02.278Z,10.47
2022-12-25T13:08:46.357Z,10.49
2022-12-25T13:11:29.520Z,10.65
2022-12-25T13:13:57.941Z,10.79
2022-12-25T13:16:26.811Z,10.84
2022-12-25T13:18:55.016Z,10.79
2022-12-25T13:21:26.587Z,10.73
2022-12-25T13:23:59.838Z,10.71
2022-12-25T13:26:27.197Z,10.64
2022-12-25T13:28:55.949Z,10.66
2022-12-25T13:31:24.807Z,10.65
2022-12-25T13:33:59.681Z,10.61
2022-12-25T13:36:28.210Z,10.57
2022-12-25T13:38:56.438Z,10.58
2022-12-25T13:41:44.000Z,10.56
2022-12-25T13:44:24.835Z,10.54
2022-12-25T13:46:51.780Z,10.56
2022-12-25T13:49:22.962Z,10.56
2022-12-25T13:51:50.430Z,10.49
2022-12-25T13:54:17.849Z,10.41
2022-12-25T13:56:51.748Z,10.40
2022-12-25T13:59:23.224Z,10.48
2022-12-25T14:01:51.145Z,10.41
2022-12-25T14:04:19.987Z,10.45
2022-12-25T14:06:47.167Z,10.40
2022-12-25T14:09:14.499Z,10.51
2022-12-25T14:11:43.603Z,10.54
2022-12-25T14:14:22.377Z,10.50
2022-12-25T14:16:50.822Z,10.52
2022-12-25T14:19:30.962Z,10.55
2022-12-25T14:21:59.964Z,10.47
2022-12-25T14:24:27.933Z,10.55
2022-12-25T14:27:03.276Z,10.53
2022-12-25T14:29:42.212Z,10.50
2022-12-25T14:32:13.880Z,10.57
2022-12-25T14:34:42.787Z,10.51
2022-12-25T14:37:14.960Z,10.48
2022-12-25T14:39:42.600Z,10.43
2022-12-25T14:42:29.192Z,10.39
2022-12-25T14:45:07.299Z,10.44
2022-12-25T14:47:40.233Z,10.47
2022-12-25T14:50:14.656Z,10.52
2022-12-25T14:52:45.241Z,10.54
2022-12-25T14:55:20.786Z,10.60
2022-12-25T14:57:53.188Z,10.70
2022-12-25T15:00:21.669Z,10.70
2022-12-25T15:02:51.244Z,10.79
2022-12-25T15:05:47.571Z,10.75
2022-12-25T15:08:14.380Z,10.83
2022-12-25T15:13:28.938Z,10.77
2022-12-25T15:16:04.191Z,10.72
2022-12-25T15:18:33.998Z,10.66
2022-12-25T15:21:00.821Z,10.68
2022-12-25T15:23:28.323Z,10.78
2022-12-25T15:25:55.247Z,10.83
2022-12-25T15:28:22.095Z,10.85
2022-12-25T15:30:49.871Z,10.82
2022-12-25T15:33:18.224Z,10.87
2022-12-25T15:35:45.745Z,10.83
2022-12-25T15:38:12.968Z,10.83
2022-12-25T15:40:40.639Z,10.86
2022-12-25T15:43:20.873Z,10.83
2022-12-25T15:45:49.462Z,10.86
2022-12-25T15:48:16.387Z,10.90
2022-12-25T15:50:44.161Z,10.95
2022-12-25T15:53:11.060Z,10.98
2022-12-25T15:55:38.092Z,10.93
2022-12-25T15:58:04.922Z,10.94
2022-12-25T16:00:31.884Z,10.97
2022-12-25T16:02:58.956Z,10.99
2022-12-25T16:05:26.812Z,10.98
2022-12-25T16:07:53.619Z,10.98
2022-12-25T16:10:20.571Z,10.98
2022-12-25T16:12:47.490Z,10.90
2022-12-25T16:15:15.197Z,10.90
2022-12-25T16:17:42.121Z,10.94
2022-12-25T16:20:09.466Z,10.88
2022-12-25T16:22:39.983Z,10.87
2022-12-25T16:25:14.977Z,10.85
2022-12-25T16:27:41.823Z,10.84
2022-12-25T16:30:09.716Z,10.91
2022-12-25T16:32:36.523Z,10.86
2022-12-25T16:35:03.558Z,10.82
2022-12-25T16:37:30.517Z,10.89
2022-12-25T16:39:57.376Z,10.88
2022-12-25T16:42:24.292Z,10.95
2022-12-25T16:44:51.120Z,10.94
2022-12-25T16:47:17.991Z,10.91
2022-12-25T16:49:44.871Z,10.91
2022-12-25T16:52:11.658Z,10.88
2022-12-25T16:54:38.521Z,10.93
2022-12-25T16:57:05.335Z,10.89
2022-12-25T16:59:33.163Z,10.90
2022-12-25T17:02:00.161Z,10.85
2022-12-25T17:04:27.323Z,11.00
2022-12-25T17:06:54.165Z,10.89
2022-12-25T17:09:21.028Z,10.96
2022-12-25T17:11:47.942Z,10.95
2022-12-25T17:14:14.780Z,10.90
2022-12-25T17:16:41.697Z,10.93
2022-12-25T17:19:15.902Z,10.96
2022-12-25T17:21:42.785Z,10.96
2022-12-25T17:24:10.055Z,10.94
2022-12-25T17:26:36.933Z,10.94
2022-12-25T17:29:03.854Z,10.91
2022-12-25T17:31:30.847Z,10.93
2022-12-25T17:34:01.534Z,10.87
2022-12-25T17:36:29.043Z,10.86
2022-12-25T17:38:55.869Z,10.83
2022-12-25T17:41:22.748Z,10.95
2022-12-25T17:43:49.683Z,10.86
2022-12-25T17:46:26.862Z,10.88
2022-12-25T17:48:54.874Z,11.00
2022-12-25T17:51:22.867Z,10.99
2022-12-25T17:53:51.595Z,10.93
2022-12-25T17:56:19.199Z,10.98
2022-12-25T17:58:50.440Z,10.87
2022-12-25T18:01:17.590Z,10.84
2022-12-25T18:03:45.044Z,10.93
2022-12-25T18:06:13.856Z,11.00
2022-12-25T18:08:41.689Z,11.09
2022-12-25T18:11:15.111Z,11.15
2022-12-25T18:13:44.669Z,11.16
2022-12-25T18:16:12.665Z,11.13
2022-12-25T18:18:39.727Z,11.14
2022-12-25T18:21:07.347Z,11.10
2022-12-25T18:23:34.843Z,11.05
2022-12-25T18:26:02.276Z,10.92
2022-12-25T18:28:29.151Z,10.90
2022-12-25T18:30:56.116Z,10.92
2022-12-25T18:33:23.008Z,10.89
2022-12-25T18:35:50.723Z,10.80
2022-12-25T18:38:17.548Z,10.79
2022-12-25T18:40:45.620Z,10.87
2022-12-25T18:43:12.689Z,10.91
2022-12-25T18:45:39.988Z,10.99
2022-12-25T18:48:06.802Z,10.99
2022-12-25T18:50:34.627Z,11.05
2022-12-25T18:53:02.228Z,11.04
2022-12-25T18:55:29.371Z,11.08
2022-12-25T18:57:56.579Z,11.06
2022-12-25T19:00:23.874Z,11.11
2022-12-25T19:02:50.973Z,11.16
2022-12-25T19:05:18.041Z,11.12
2022-12-25T19:07:44.920Z,11.16
2022-12-25T19:10:11.784Z,11.16
2022-12-25T19:12:38.687Z,11.18
2022-12-25T19:15:05.949Z,11.08
2022-12-25T19:17:34.190Z,11.09
2022-12-25T19:20:02.259Z,11.10
2022-12-25T19:22:29.327Z,11.12
2022-12-25T19:24:56.320Z,11.16
2022-12-25T19:27:23.187Z,11.17
2022-12-25T19:29:49.984Z,11.14
2022-12-25T19:32:16.813Z,11.13
2022-12-25T19:34:43.658Z,11.18
2022-12-25T19:37:10.582Z,11.15
2022-12-25T19:39:37.586Z,11.21
2022-12-25T19:42:04.413Z,11.10
2022-12-25T19:44:31.244Z,11.07
2022-12-25T19:46:58.093Z,11.14
2022-12-25T19:49:25.935Z,11.16
2022-12-25T19:51:52.831Z,11.15
2022-12-25T19:54:20.707Z,11.17
2022-12-25T19:56:48.083Z,11.17
2022-12-25T19:59:15.408Z,11.22
2022-12-25T20:01:42.634Z,11.18
2022-12-25T20:04:10.323Z,11.23
2022-12-25T20:06:38.738Z,11.18
2022-12-25T20:09:07.313Z,11.24
2022-12-25T20:11:35.830Z,11.25
2022-12-25T20:14:03.233Z,11.33
2022-12-25T20:16:30.109Z,11.31
2022-12-25T20:18:57.372Z,11.32
2022-12-25T20:21:24.602Z,11.34
2022-12-25T20:23:52.359Z,11.23
2022-12-25T20:26:20.512Z,11.16
2022-12-25T20:28:47.426Z,11.16
2022-12-25T20:31:16.835Z,11.05
2022-12-25T20:33:44.205Z,11.16
2022-12-25T20:36:11.111Z,11.23
2022-12-25T20:38:37.983Z,11.26
2022-12-25T20:41:26.819Z,11.25
2022-12-25T20:43:55.473Z,11.20
2022-12-25T20:46:22.713Z,11.25
2022-12-25T20:48:49.691Z,11.26
2022-12-25T20:51:18.133Z,11.26
2022-12-25T20:53:45.391Z,11.30
2022-12-25T20:56:13.266Z,11.25
2022-12-25T20:58:40.346Z,11.29
2022-12-25T21:01:08.201Z,11.31
2022-12-25T21:03:35.361Z,11.36
2022-12-25T21:06:02.817Z,11.33
2022-12-25T21:08:30.102Z,11.38
2022-12-25T21:11:00.559Z,11.35
2022-12-25T21:13:30.561Z,11.39
2022-12-25T21:15:57.906Z,11.38
2022-12-25T21:18:25.967Z,11.44
2022-12-25T21:20:54.248Z,11.47
2022-12-25T21:23:21.770Z,11.51
2022-12-25T21:25:48.831Z,11.48
2022-12-25T21:28:16.107Z,11.41
2022-12-25T21:30:43.022Z,11.45
2022-12-25T21:33:32.280Z,11.54
2022-12-25T21:36:09.378Z,11.55
2022-12-25T21:38:36.685Z,11.58
2022-12-25T21:41:04.462Z,11.64
2022-12-25T21:43:34.027Z,11.62
2022-12-25T21:46:02.045Z,11.72
2022-12-25T21:48:29.211Z,11.55
2022-12-25T21:51:32.862Z,11.62
2022-12-25T21:54:00.522Z,11.59
2022-12-25T21:56:28.255Z,11.61
2022-12-25T21:58:55.184Z,11.68
2022-12-25T22:01:22.214Z,11.58
2022-12-25T22:03:49.171Z,11.62
2022-12-25T22:06:34.665Z,11.67
2022-12-25T22:09:01.817Z,11.62
2022-12-25T22:11:47.432Z,11.60
2022-12-25T22:14:52.481Z,11.67
2022-12-25T22:17:40.986Z,11.58
2022-12-25T22:20:09.059Z,11.66
2022-12-25T22:22:36.234Z,11.62
2022-12-25T22:25:04.343Z,11.61
2022-12-25T22:27:34.619Z,11.68
2022-12-25T22:30:01.535Z,11.68
2022-12-25T22:32:28.718Z,11.72
2022-12-25T22:34:55.627Z,11.69
2022-12-25T22:37:22.603Z,11.67
2022-12-25T22:39:49.515Z,11.58
2022-12-25T22:42:16.496Z,11.66
2022-12-25T22:44:43.444Z,11.59
2022-12-25T22:47:10.272Z,11.62
2022-12-25T22:49:37.234Z,11.62
2022-12-25T22:52:04.233Z,11.59
2022-12-25T22:54:34.754Z,11.59
2022-12-25T22:57:01.623Z,11.58
2022-12-25T22:59:28.521Z,11.55
2022-12-25T23:01:55.442Z,11.66
2022-12-25T23:04:22.756Z,11.73
2022-12-25T23:06:50.008Z,11.76
2022-12-25T23:09:24.173Z,11.75
2022-12-25T23:11:51.543Z,11.70
2022-12-25T23:14:37.015Z,11.74
2022-12-25T23:17:04.048Z,11.71
2022-12-25T23:19:49.749Z,11.69
2022-12-25T23:22:35.371Z,11.76
2022-12-25T23:25:21.004Z,11.71
2022-12-25T23:27:47.813Z,11.69
2022-12-25T23:30:15.928Z,11.68
2022-12-25T23:32:43.861Z,11.69
2022-12-25T23:35:11.673Z,11.66
2022-12-25T23:37:38.500Z,11.66
2022-12-25T23:40:05.657Z,11.71
2022-12-25T23:42:32.470Z,11.74
2022-12-25T23:44:59.283Z,11.78
2022-12-25T23:47:26.116Z,11.80
2022-12-25T23:49:52.940Z,11.86
2022-12-25T23:52:19.776Z,11.82
2022-12-25T23:54:46.609Z,11.72
2022-12-25T23:57:13.409Z,11.72
2022-12-25T23:59:40.291Z,11.69
